sensor_id;sensor_type;location;lat;lon;timestamp;pressure;altitude;pressure_sealevel;temperature;humidity
19112;BME280;9688;51.906;8.376;2022-10-31T00:01:55;101201.34;;;15.11;89.83
19112;BME280;9688;51.906;8.376;2022-10-31T00:04:40;101206.84;;;15.08;90.00
19112;BME280;9688;51.906;8.376;2022-10-31T00:07:26;101203.44;;;15.04;90.38
19112;BME280;9688;51.906;8.376;2022-10-31T00:10:13;101208.75;;;15.04;90.35
19112;BME280;9688;51.906;8.376;2022-10-31T00:12:58;101208.84;;;15.03;90.48
19112;BME280;9688;51.906;8.376;2022-10-31T00:15:45;101210.72;;;15.01;90.61
19112;BME280;9688;51.906;8.376;2022-10-31T00:18:31;101213.53;;;14.98;90.54
19112;BME280;9688;51.906;8.376;2022-10-31T00:21:16;101213.69;;;14.94;91.05
19112;BME280;9688;51.906;8.376;2022-10-31T00:24:02;101221.81;;;14.91;90.70
19112;BME280;9688;51.906;8.376;2022-10-31T00:26:48;101227.19;;;14.90;91.16
19112;BME280;9688;51.906;8.376;2022-10-31T00:29:34;101227.47;;;14.84;91.45
19112;BME280;9688;51.906;8.376;2022-10-31T00:32:21;101221.59;;;14.77;91.79
19112;BME280;9688;51.906;8.376;2022-10-31T00:35:07;101227.13;;;14.72;91.79
19112;BME280;9688;51.906;8.376;2022-10-31T00:37:52;101229.13;;;14.67;92.12
19112;BME280;9688;51.906;8.376;2022-10-31T00:40:38;101230.22;;;14.63;92.07
19112;BME280;9688;51.906;8.376;2022-10-31T00:43:23;101233.88;;;14.61;92.42
19112;BME280;9688;51.906;8.376;2022-10-31T00:46:08;101238.44;;;14.57;92.33
19112;BME280;9688;51.906;8.376;2022-10-31T00:48:56;101229.75;;;14.54;92.47
19112;BME280;9688;51.906;8.376;2022-10-31T00:51:41;101237.78;;;14.52;92.81
19112;BME280;9688;51.906;8.376;2022-10-31T00:54:27;101233.56;;;14.46;92.55
19112;BME280;9688;51.906;8.376;2022-10-31T00:57:13;101240.03;;;14.41;92.69
19112;BME280;9688;51.906;8.376;2022-10-31T00:59:58;101236.84;;;14.33;93.18
19112;BME280;9688;51.906;8.376;2022-10-31T01:02:44;101245.84;;;14.30;93.09
19112;BME280;9688;51.906;8.376;2022-10-31T01:05:31;101245.19;;;14.25;93.09
19112;BME280;9688;51.906;8.376;2022-10-31T01:08:16;101237.44;;;14.19;93.28
19112;BME280;9688;51.906;8.376;2022-10-31T01:11:05;101241.19;;;14.15;93.40
19112;BME280;9688;51.906;8.376;2022-10-31T01:13:52;101251.97;;;14.12;93.43
19112;BME280;9688;51.906;8.376;2022-10-31T01:16:38;101246.91;;;14.05;93.54
19112;BME280;9688;51.906;8.376;2022-10-31T01:19:24;101244.44;;;14.01;93.66
19112;BME280;9688;51.906;8.376;2022-10-31T01:22:10;101252.59;;;13.96;93.53
19112;BME280;9688;51.906;8.376;2022-10-31T01:24:56;101248.41;;;13.91;93.72
19112;BME280;9688;51.906;8.376;2022-10-31T01:27:41;101250.41;;;13.86;93.83
19112;BME280;9688;51.906;8.376;2022-10-31T01:30:27;101247.09;;;13.80;94.22
19112;BME280;9688;51.906;8.376;2022-10-31T01:33:12;101251.66;;;13.77;93.95
19112;BME280;9688;51.906;8.376;2022-10-31T01:35:57;101239.47;;;13.71;94.11
19112;BME280;9688;51.906;8.376;2022-10-31T01:38:45;101244.91;;;13.68;94.26
19112;BME280;9688;51.906;8.376;2022-10-31T01:41:33;101248.56;;;13.66;94.21
19112;BME280;9688;51.906;8.376;2022-10-31T01:47:45;101234.94;;;13.53;94.36
19112;BME280;9688;51.906;8.376;2022-10-31T01:50:37;101235.16;;;13.47;94.56
19112;BME280;9688;51.906;8.376;2022-10-31T01:53:24;101234.50;;;13.42;94.78
19112;BME280;9688;51.906;8.376;2022-10-31T01:56:10;101239.16;;;13.36;94.71
19112;BME280;9688;51.906;8.376;2022-10-31T01:58:58;101235.63;;;13.36;94.89
19112;BME280;9688;51.906;8.376;2022-10-31T02:01:45;101234.13;;;13.29;94.72
19112;BME280;9688;51.906;8.376;2022-10-31T02:04:31;101243.22;;;13.22;94.94
19112;BME280;9688;51.906;8.376;2022-10-31T02:07:21;101238.13;;;13.17;94.93
19112;BME280;9688;51.906;8.376;2022-10-31T02:10:09;101246.13;;;13.15;95.11
19112;BME280;9688;51.906;8.376;2022-10-31T02:12:58;101247.19;;;13.11;94.94
19112;BME280;9688;51.906;8.376;2022-10-31T02:15:47;101246.38;;;13.09;95.08
19112;BME280;9688;51.906;8.376;2022-10-31T02:18:34;101244.78;;;13.05;95.21
19112;BME280;9688;51.906;8.376;2022-10-31T02:21:24;101247.34;;;13.07;94.82
19112;BME280;9688;51.906;8.376;2022-10-31T02:27:47;101242.78;;;13.10;94.96
19112;BME280;9688;51.906;8.376;2022-10-31T02:33:40;101231.69;;;13.23;94.68
19112;BME280;9688;51.906;8.376;2022-10-31T02:36:34;101236.91;;;13.26;94.47
19112;BME280;9688;51.906;8.376;2022-10-31T02:39:26;101242.97;;;13.29;94.43
19112;BME280;9688;51.906;8.376;2022-10-31T02:42:18;101255.13;;;13.35;94.47
19112;BME280;9688;51.906;8.376;2022-10-31T02:45:13;101266.44;;;13.40;94.37
19112;BME280;9688;51.906;8.376;2022-10-31T02:48:03;101271.56;;;13.45;94.25
19112;BME280;9688;51.906;8.376;2022-10-31T02:50:55;101279.34;;;13.49;94.32
19112;BME280;9688;51.906;8.376;2022-10-31T02:53:42;101273.03;;;13.52;94.16
19112;BME280;9688;51.906;8.376;2022-10-31T02:56:27;101272.81;;;13.58;93.70
19112;BME280;9688;51.906;8.376;2022-10-31T02:59:13;101272.59;;;13.63;93.72
19112;BME280;9688;51.906;8.376;2022-10-31T03:02:15;101271.50;;;13.68;93.87
19112;BME280;9688;51.906;8.376;2022-10-31T03:05:23;101263.41;;;13.71;93.32
19112;BME280;9688;51.906;8.376;2022-10-31T03:08:18;101264.81;;;13.80;93.33
19112;BME280;9688;51.906;8.376;2022-10-31T03:11:07;101262.81;;;13.85;93.25
19112;BME280;9688;51.906;8.376;2022-10-31T03:14:00;101265.44;;;13.87;93.32
19112;BME280;9688;51.906;8.376;2022-10-31T03:16:49;101247.63;;;13.89;93.42
19112;BME280;9688;51.906;8.376;2022-10-31T03:19:39;101252.00;;;13.90;93.43
19112;BME280;9688;51.906;8.376;2022-10-31T03:22:27;101253.66;;;13.92;93.33
19112;BME280;9688;51.906;8.376;2022-10-31T03:25:16;101241.19;;;13.94;93.44
19112;BME280;9688;51.906;8.376;2022-10-31T03:28:04;101240.44;;;13.91;93.19
19112;BME280;9688;51.906;8.376;2022-10-31T03:30:51;101243.31;;;13.86;93.45
19112;BME280;9688;51.906;8.376;2022-10-31T03:33:38;101243.44;;;13.83;93.60
19112;BME280;9688;51.906;8.376;2022-10-31T03:36:26;101241.69;;;13.82;93.56
19112;BME280;9688;51.906;8.376;2022-10-31T03:39:14;101238.34;;;13.77;93.37
19112;BME280;9688;51.906;8.376;2022-10-31T03:42:05;101238.50;;;13.74;93.64
19112;BME280;9688;51.906;8.376;2022-10-31T03:44:55;101243.13;;;13.69;93.41
19112;BME280;9688;51.906;8.376;2022-10-31T03:47:41;101251.31;;;13.64;93.38
19112;BME280;9688;51.906;8.376;2022-10-31T03:50:30;101259.44;;;13.59;93.63
19112;BME280;9688;51.906;8.376;2022-10-31T03:53:24;101260.53;;;13.55;93.71
19112;BME280;9688;51.906;8.376;2022-10-31T03:56:17;101264.22;;;13.51;93.83
19112;BME280;9688;51.906;8.376;2022-10-31T03:59:09;101261.81;;;13.45;93.66
19112;BME280;9688;51.906;8.376;2022-10-31T04:02:02;101263.72;;;13.42;94.09
19112;BME280;9688;51.906;8.376;2022-10-31T04:04:49;101270.06;;;13.37;94.13
19112;BME280;9688;51.906;8.376;2022-10-31T04:07:37;101267.78;;;13.28;94.27
19112;BME280;9688;51.906;8.376;2022-10-31T04:10:26;101267.88;;;13.25;94.37
19112;BME280;9688;51.906;8.376;2022-10-31T04:13:17;101275.91;;;13.24;94.22
19112;BME280;9688;51.906;8.376;2022-10-31T04:16:07;101273.31;;;13.22;94.55
19112;BME280;9688;51.906;8.376;2022-10-31T04:18:54;101268.13;;;13.19;94.49
19112;BME280;9688;51.906;8.376;2022-10-31T04:21:40;101268.28;;;13.14;94.34
19112;BME280;9688;51.906;8.376;2022-10-31T04:24:27;101270.31;;;13.08;94.69
19112;BME280;9688;51.906;8.376;2022-10-31T04:27:12;101280.13;;;13.06;94.75
19112;BME280;9688;51.906;8.376;2022-10-31T04:29:58;101280.34;;;13.00;95.00
19112;BME280;9688;51.906;8.376;2022-10-31T04:32:45;101268.09;;;12.97;94.59
19112;BME280;9688;51.906;8.376;2022-10-31T04:35:31;101276.09;;;12.95;94.84
19112;BME280;9688;51.906;8.376;2022-10-31T04:38:17;101270.94;;;12.91;94.91
19112;BME280;9688;51.906;8.376;2022-10-31T04:41:04;101268.53;;;12.85;95.36
19112;BME280;9688;51.906;8.376;2022-10-31T04:43:50;101270.47;;;12.80;95.37
19112;BME280;9688;51.906;8.376;2022-10-31T04:46:35;101273.25;;;12.77;95.03
19112;BME280;9688;51.906;8.376;2022-10-31T04:49:22;101262.84;;;12.72;95.46
19112;BME280;9688;51.906;8.376;2022-10-31T04:52:08;101265.56;;;12.69;95.82
19112;BME280;9688;51.906;8.376;2022-10-31T04:54:53;101264.09;;;12.62;95.99
19112;BME280;9688;51.906;8.376;2022-10-31T04:57:42;101262.41;;;12.59;95.78
19112;BME280;9688;51.906;8.376;2022-10-31T05:00:28;101258.81;;;12.60;95.75
19112;BME280;9688;51.906;8.376;2022-10-31T05:03:14;101254.50;;;12.58;95.66
19112;BME280;9688;51.906;8.376;2022-10-31T05:06:01;101253.72;;;12.56;95.97
19112;BME280;9688;51.906;8.376;2022-10-31T05:08:46;101257.34;;;12.53;96.12
19112;BME280;9688;51.906;8.376;2022-10-31T05:11:31;101256.50;;;12.51;96.22
19112;BME280;9688;51.906;8.376;2022-10-31T05:14:17;101248.56;;;12.51;96.07
19112;BME280;9688;51.906;8.376;2022-10-31T05:17:03;101240.72;;;12.48;95.99
19112;BME280;9688;51.906;8.376;2022-10-31T05:19:48;101234.66;;;12.44;96.65
19112;BME280;9688;51.906;8.376;2022-10-31T05:22:35;101242.63;;;12.44;96.21
19112;BME280;9688;51.906;8.376;2022-10-31T05:25:22;101240.00;;;12.43;96.09
19112;BME280;9688;51.906;8.376;2022-10-31T05:28:08;101241.91;;;12.39;96.02
19112;BME280;9688;51.906;8.376;2022-10-31T05:30:54;101243.75;;;12.37;96.53
19112;BME280;9688;51.906;8.376;2022-10-31T05:33:39;101248.25;;;12.35;96.99
19112;BME280;9688;51.906;8.376;2022-10-31T05:36:25;101244.72;;;12.35;96.79
19112;BME280;9688;51.906;8.376;2022-10-31T05:39:12;101242.94;;;12.35;96.75
19112;BME280;9688;51.906;8.376;2022-10-31T05:41:57;101243.78;;;12.36;96.92
19112;BME280;9688;51.906;8.376;2022-10-31T05:44:43;101253.53;;;12.35;96.86
19112;BME280;9688;51.906;8.376;2022-10-31T05:47:28;101251.00;;;12.32;96.84
19112;BME280;9688;51.906;8.376;2022-10-31T05:50:16;101250.06;;;12.33;97.08
19112;BME280;9688;51.906;8.376;2022-10-31T05:53:04;101250.13;;;12.32;97.44
19112;BME280;9688;51.906;8.376;2022-10-31T05:55:51;101245.81;;;12.29;96.80
19112;BME280;9688;51.906;8.376;2022-10-31T05:58:37;101250.19;;;12.30;96.78
19112;BME280;9688;51.906;8.376;2022-10-31T06:01:23;101248.44;;;12.31;97.03
19112;BME280;9688;51.906;8.376;2022-10-31T06:04:08;101255.56;;;12.28;96.60
19112;BME280;9688;51.906;8.376;2022-10-31T06:06:54;101253.75;;;12.29;96.25
19112;BME280;9688;51.906;8.376;2022-10-31T06:09:39;101252.03;;;12.28;96.85
19112;BME280;9688;51.906;8.376;2022-10-31T06:12:26;101252.91;;;12.28;97.07
19112;BME280;9688;51.906;8.376;2022-10-31T06:15:12;101255.59;;;12.27;96.86
19112;BME280;9688;51.906;8.376;2022-10-31T06:18:00;101253.75;;;12.29;97.09
19112;BME280;9688;51.906;8.376;2022-10-31T06:20:45;101252.69;;;12.35;97.47
19112;BME280;9688;51.906;8.376;2022-10-31T06:23:31;101257.00;;;12.37;96.88
19112;BME280;9688;51.906;8.376;2022-10-31T06:26:17;101260.41;;;12.41;97.53
19112;BME280;9688;51.906;8.376;2022-10-31T06:29:04;101262.94;;;12.44;96.75
19112;BME280;9688;51.906;8.376;2022-10-31T06:31:51;101259.41;;;12.45;96.68
19112;BME280;9688;51.906;8.376;2022-10-31T06:34:36;101253.97;;;12.48;96.81
19112;BME280;9688;51.906;8.376;2022-10-31T06:37:22;101255.78;;;12.47;96.75
19112;BME280;9688;51.906;8.376;2022-10-31T06:40:09;101256.75;;;12.45;96.91
19112;BME280;9688;51.906;8.376;2022-10-31T06:42:58;101258.53;;;12.44;97.47
19112;BME280;9688;51.906;8.376;2022-10-31T06:45:45;101264.59;;;12.48;97.03
19112;BME280;9688;51.906;8.376;2022-10-31T06:48:31;101271.50;;;12.52;97.09
19112;BME280;9688;51.906;8.376;2022-10-31T06:51:17;101280.22;;;12.56;96.84
19112;BME280;9688;51.906;8.376;2022-10-31T06:54:02;101283.50;;;12.62;96.80
19112;BME280;9688;51.906;8.376;2022-10-31T06:56:48;101285.94;;;12.68;96.10
19112;BME280;9688;51.906;8.376;2022-10-31T06:59:33;101283.16;;;12.71;96.17
19112;BME280;9688;51.906;8.376;2022-10-31T07:02:20;101273.44;;;12.72;96.30
19112;BME280;9688;51.906;8.376;2022-10-31T07:05:06;101267.94;;;12.77;96.25
19112;BME280;9688;51.906;8.376;2022-10-31T07:07:53;101276.84;;;12.76;96.37
19112;BME280;9688;51.906;8.376;2022-10-31T07:10:40;101275.91;;;12.77;96.07
19112;BME280;9688;51.906;8.376;2022-10-31T07:13:27;101281.97;;;12.80;96.38
19112;BME280;9688;51.906;8.376;2022-10-31T07:16:12;101270.38;;;12.83;96.49
19112;BME280;9688;51.906;8.376;2022-10-31T07:18:59;101270.09;;;12.90;96.15
19112;BME280;9688;51.906;8.376;2022-10-31T07:21:45;101267.28;;;12.95;96.03
19112;BME280;9688;51.906;8.376;2022-10-31T07:24:30;101266.34;;;12.96;95.98
19112;BME280;9688;51.906;8.376;2022-10-31T07:27:16;101266.09;;;13.02;96.11
19112;BME280;9688;51.906;8.376;2022-10-31T07:30:07;101264.91;;;13.11;95.54
19112;BME280;9688;51.906;8.376;2022-10-31T07:32:53;101268.22;;;13.16;95.61
19112;BME280;9688;51.906;8.376;2022-10-31T07:35:40;101266.38;;;13.18;95.35
19112;BME280;9688;51.906;8.376;2022-10-31T07:38:27;101270.50;;;13.27;95.62
19112;BME280;9688;51.906;8.376;2022-10-31T07:41:12;101270.03;;;13.39;95.29
19112;BME280;9688;51.906;8.376;2022-10-31T07:43:58;101267.84;;;13.49;95.25
19112;BME280;9688;51.906;8.376;2022-10-31T07:46:43;101272.81;;;13.58;94.37
19112;BME280;9688;51.906;8.376;2022-10-31T07:49:29;101272.44;;;13.67;94.66
19112;BME280;9688;51.906;8.376;2022-10-31T07:52:16;101269.25;;;13.79;94.52
19112;BME280;9688;51.906;8.376;2022-10-31T07:55:02;101268.00;;;13.88;94.26
19112;BME280;9688;51.906;8.376;2022-10-31T07:57:55;101266.88;;;13.94;94.20
19112;BME280;9688;51.906;8.376;2022-10-31T08:00:44;101265.72;;;14.01;93.92
19112;BME280;9688;51.906;8.376;2022-10-31T08:03:30;101273.41;;;14.07;93.69
19112;BME280;9688;51.906;8.376;2022-10-31T08:06:15;101269.56;;;14.14;93.56
19112;BME280;9688;51.906;8.376;2022-10-31T08:09:04;101267.59;;;14.19;93.62
19112;BME280;9688;51.906;8.376;2022-10-31T08:11:50;101277.22;;;14.22;93.85
19112;BME280;9688;51.906;8.376;2022-10-31T08:14:35;101285.75;;;14.30;93.57
19112;BME280;9688;51.906;8.376;2022-10-31T08:17:21;101275.75;;;14.35;93.44
19112;BME280;9688;51.906;8.376;2022-10-31T08:20:08;101266.72;;;14.39;93.24
19112;BME280;9688;51.906;8.376;2022-10-31T08:22:58;101267.38;;;14.44;93.11
19112;BME280;9688;51.906;8.376;2022-10-31T08:25:48;101265.38;;;14.49;92.89
19112;BME280;9688;51.906;8.376;2022-10-31T08:28:35;101259.00;;;14.54;93.27
19112;BME280;9688;51.906;8.376;2022-10-31T08:31:21;101258.81;;;14.58;93.28
19112;BME280;9688;51.906;8.376;2022-10-31T08:34:07;101256.81;;;14.63;93.00
19112;BME280;9688;51.906;8.376;2022-10-31T08:36:53;101258.44;;;14.66;93.13
19112;BME280;9688;51.906;8.376;2022-10-31T08:39:38;101251.22;;;14.69;93.02
19112;BME280;9688;51.906;8.376;2022-10-31T08:42:26;101243.94;;;14.73;92.87
19112;BME280;9688;51.906;8.376;2022-10-31T08:45:12;101247.31;;;14.77;92.71
19112;BME280;9688;51.906;8.376;2022-10-31T08:47:58;101248.84;;;14.82;92.98
19112;BME280;9688;51.906;8.376;2022-10-31T08:50:44;101235.31;;;14.87;92.69
19112;BME280;9688;51.906;8.376;2022-10-31T08:53:31;101231.47;;;14.94;92.71
19112;BME280;9688;51.906;8.376;2022-10-31T08:56:18;101235.53;;;15.01;92.82
19112;BME280;9688;51.906;8.376;2022-10-31T08:59:06;101239.84;;;15.04;92.27
19112;BME280;9688;51.906;8.376;2022-10-31T09:01:51;101232.66;;;15.06;92.29
19112;BME280;9688;51.906;8.376;2022-10-31T09:04:36;101237.78;;;15.10;92.79
19112;BME280;9688;51.906;8.376;2022-10-31T09:07:22;101225.25;;;15.12;92.39
19112;BME280;9688;51.906;8.376;2022-10-31T09:10:08;101224.94;;;15.18;92.62
19112;BME280;9688;51.906;8.376;2022-10-31T09:12:55;101215.72;;;15.26;92.76
19112;BME280;9688;51.906;8.376;2022-10-31T09:15:43;101219.09;;;15.29;92.21
19112;BME280;9688;51.906;8.376;2022-10-31T09:18:29;101213.50;;;15.35;92.12
19112;BME280;9688;51.906;8.376;2022-10-31T09:21:15;101215.59;;;15.46;92.32
19112;BME280;9688;51.906;8.376;2022-10-31T09:24:01;101223.06;;;15.57;91.97
19112;BME280;9688;51.906;8.376;2022-10-31T09:26:46;101220.81;;;15.67;91.99
19112;BME280;9688;51.906;8.376;2022-10-31T09:29:32;101228.38;;;15.76;91.89
19112;BME280;9688;51.906;8.376;2022-10-31T09:32:19;101226.41;;;15.79;92.02
19112;BME280;9688;51.906;8.376;2022-10-31T09:35:06;101225.13;;;15.88;91.40
19112;BME280;9688;51.906;8.376;2022-10-31T09:37:55;101213.88;;;15.99;91.58
19112;BME280;9688;51.906;8.376;2022-10-31T09:40:44;101217.16;;;16.04;91.61
19112;BME280;9688;51.906;8.376;2022-10-31T09:43:40;101228.56;;;16.08;91.05
19112;BME280;9688;51.906;8.376;2022-10-31T09:46:34;101227.06;;;16.19;91.45
19112;BME280;9688;51.906;8.376;2022-10-31T09:49:47;101219.25;;;16.32;90.52
19112;BME280;9688;51.906;8.376;2022-10-31T09:52:37;101228.28;;;16.47;90.73
19112;BME280;9688;51.906;8.376;2022-10-31T09:55:30;101223.06;;;16.61;90.33
19112;BME280;9688;51.906;8.376;2022-10-31T09:58:19;101230.47;;;16.72;90.27
19112;BME280;9688;51.906;8.376;2022-10-31T10:01:10;101217.50;;;16.82;89.44
19112;BME280;9688;51.906;8.376;2022-10-31T10:04:11;101218.56;;;16.95;89.24
19112;BME280;9688;51.906;8.376;2022-10-31T10:07:10;101213.59;;;17.05;89.43
19112;BME280;9688;51.906;8.376;2022-10-31T10:10:00;101212.19;;;17.13;89.24
19112;BME280;9688;51.906;8.376;2022-10-31T10:16:14;101198.03;;;17.43;88.78
19112;BME280;9688;51.906;8.376;2022-10-31T10:19:15;101193.97;;;17.52;88.00
19112;BME280;9688;51.906;8.376;2022-10-31T10:22:12;101195.25;;;17.60;88.33
19112;BME280;9688;51.906;8.376;2022-10-31T10:25:12;101196.25;;;17.74;87.97
19112;BME280;9688;51.906;8.376;2022-10-31T10:28:10;101194.75;;;17.84;87.78
19112;BME280;9688;51.906;8.376;2022-10-31T10:31:05;101189.34;;;18.00;87.10
19112;BME280;9688;51.906;8.376;2022-10-31T10:34:01;101190.34;;;18.13;86.99
19112;BME280;9688;51.906;8.376;2022-10-31T10:36:54;101180.31;;;18.31;86.01
19112;BME280;9688;51.906;8.376;2022-10-31T10:39:45;101180.41;;;18.44;85.74
19112;BME280;9688;51.906;8.376;2022-10-31T10:42:33;101172.28;;;18.60;85.36
19112;BME280;9688;51.906;8.376;2022-10-31T10:45:38;101168.56;;;18.77;84.69
19112;BME280;9688;51.906;8.376;2022-10-31T10:48:44;101159.94;;;18.86;83.99
19112;BME280;9688;51.906;8.376;2022-10-31T10:51:37;101148.31;;;19.00;83.91
19112;BME280;9688;51.906;8.376;2022-10-31T10:55:02;101147.69;;;19.09;82.94
19112;BME280;9688;51.906;8.376;2022-10-31T10:57:55;101144.13;;;19.23;82.56
19112;BME280;9688;51.906;8.376;2022-10-31T11:00:43;101132.78;;;19.32;82.25
19112;BME280;9688;51.906;8.376;2022-10-31T11:03:35;101140.09;;;19.43;81.63
19112;BME280;9688;51.906;8.376;2022-10-31T11:06:22;101132.94;;;19.56;81.28
19112;BME280;9688;51.906;8.376;2022-10-31T11:09:10;101134.84;;;19.68;80.70
19112;BME280;9688;51.906;8.376;2022-10-31T11:11:57;101134.19;;;19.77;80.09
19112;BME280;9688;51.906;8.376;2022-10-31T11:14:47;101130.13;;;19.85;80.01
19112;BME280;9688;51.906;8.376;2022-10-31T11:17:36;101131.53;;;19.90;79.84
19112;BME280;9688;51.906;8.376;2022-10-31T11:20:27;101127.03;;;19.91;79.68
19112;BME280;9688;51.906;8.376;2022-10-31T11:23:22;101122.81;;;19.87;80.04
19112;BME280;9688;51.906;8.376;2022-10-31T11:26:19;101112.00;;;19.88;79.78
19112;BME280;9688;51.906;8.376;2022-10-31T11:29:13;101099.34;;;19.90;79.50
19112;BME280;9688;51.906;8.376;2022-10-31T11:32:00;101104.69;;;19.90;79.56
19112;BME280;9688;51.906;8.376;2022-10-31T11:34:48;101097.72;;;19.88;79.64
19112;BME280;9688;51.906;8.376;2022-10-31T11:37:40;101092.56;;;19.85;79.88
19112;BME280;9688;51.906;8.376;2022-10-31T11:40:28;101081.16;;;19.81;80.08
19112;BME280;9688;51.906;8.376;2022-10-31T11:43:18;101087.31;;;19.83;79.93
19112;BME280;9688;51.906;8.376;2022-10-31T11:46:17;101079.88;;;19.87;79.96
19112;BME280;9688;51.906;8.376;2022-10-31T11:49:15;101074.84;;;19.95;79.99
19112;BME280;9688;51.906;8.376;2022-10-31T11:52:06;101066.16;;;20.04;79.68
19112;BME280;9688;51.906;8.376;2022-10-31T11:54:58;101065.81;;;20.09;79.54
19112;BME280;9688;51.906;8.376;2022-10-31T11:57:45;101065.28;;;20.16;79.38
19112;BME280;9688;51.906;8.376;2022-10-31T12:00:33;101062.34;;;20.19;79.11
19112;BME280;9688;51.906;8.376;2022-10-31T12:03:40;101053.53;;;20.17;79.22
19112;BME280;9688;51.906;8.376;2022-10-31T12:06:30;101051.63;;;20.19;78.81
19112;BME280;9688;51.906;8.376;2022-10-31T12:09:20;101035.28;;;20.22;78.93
19112;BME280;9688;51.906;8.376;2022-10-31T12:15:30;101033.97;;;20.41;78.67
19112;BME280;9688;51.906;8.376;2022-10-31T12:18:48;101036.66;;;20.54;77.92
19112;BME280;9688;51.906;8.376;2022-10-31T12:21:55;101024.22;;;20.64;77.43
19112;BME280;9688;51.906;8.376;2022-10-31T12:25:11;101020.59;;;20.65;77.23
19112;BME280;9688;51.906;8.376;2022-10-31T12:28:09;101009.38;;;20.71;76.98
19112;BME280;9688;51.906;8.376;2022-10-31T12:31:05;101010.34;;;20.70;76.92
19112;BME280;9688;51.906;8.376;2022-10-31T12:34:01;101006.78;;;20.69;76.66
19112;BME280;9688;51.906;8.376;2022-10-31T12:37:00;100998.13;;;20.66;76.58
19112;BME280;9688;51.906;8.376;2022-10-31T12:39:56;100983.41;;;20.59;76.84
19112;BME280;9688;51.906;8.376;2022-10-31T12:43:01;100980.97;;;20.56;76.87
19112;BME280;9688;51.906;8.376;2022-10-31T12:45:54;100973.47;;;20.48;76.84
19112;BME280;9688;51.906;8.376;2022-10-31T12:49:10;100961.22;;;20.44;77.06
19112;BME280;9688;51.906;8.376;2022-10-31T12:52:07;100958.16;;;20.37;77.09
19112;BME280;9688;51.906;8.376;2022-10-31T12:55:10;100959.31;;;20.33;77.40
19112;BME280;9688;51.906;8.376;2022-10-31T12:58:07;100964.31;;;20.26;77.69
19112;BME280;9688;51.906;8.376;2022-10-31T13:01:08;100961.38;;;20.30;77.40
19112;BME280;9688;51.906;8.376;2022-10-31T13:03:59;100951.03;;;20.36;77.66
19112;BME280;9688;51.906;8.376;2022-10-31T13:06:53;100947.16;;;20.40;77.42
19112;BME280;9688;51.906;8.376;2022-10-31T13:09:47;100941.44;;;20.45;77.46
19112;BME280;9688;51.906;8.376;2022-10-31T13:12:36;100941.00;;;20.51;77.46
19112;BME280;9688;51.906;8.376;2022-10-31T13:15:25;100934.56;;;20.54;77.13
19112;BME280;9688;51.906;8.376;2022-10-31T13:18:22;100924.88;;;20.51;77.06
19112;BME280;9688;51.906;8.376;2022-10-31T13:21:17;100926.16;;;20.58;76.43
19112;BME280;9688;51.906;8.376;2022-10-31T13:24:10;100917.00;;;20.61;76.13
19112;BME280;9688;51.906;8.376;2022-10-31T13:27:01;100921.66;;;20.70;75.72
19112;BME280;9688;51.906;8.376;2022-10-31T13:29:56;100914.13;;;20.75;74.95
19112;BME280;9688;51.906;8.376;2022-10-31T13:32:47;100916.69;;;20.77;74.79
19112;BME280;9688;51.906;8.376;2022-10-31T13:35:38;100905.59;;;20.81;74.43
19112;BME280;9688;51.906;8.376;2022-10-31T13:38:30;100901.78;;;20.72;74.33
19112;BME280;9688;51.906;8.376;2022-10-31T13:41:34;100897.84;;;20.65;74.33
19112;BME280;9688;51.906;8.376;2022-10-31T13:44:26;100895.84;;;20.56;74.29
19112;BME280;9688;51.906;8.376;2022-10-31T13:47:23;100895.00;;;20.56;74.43
19112;BME280;9688;51.906;8.376;2022-10-31T13:50:24;100886.00;;;20.57;74.26
19112;BME280;9688;51.906;8.376;2022-10-31T13:53:13;100883.16;;;20.58;74.16
19112;BME280;9688;51.906;8.376;2022-10-31T13:56:03;100874.88;;;20.61;73.98
19112;BME280;9688;51.906;8.376;2022-10-31T13:59:15;100871.81;;;20.55;74.18
19112;BME280;9688;51.906;8.376;2022-10-31T14:02:15;100865.66;;;20.53;74.15
19112;BME280;9688;51.906;8.376;2022-10-31T14:05:03;100861.09;;;20.42;74.60
19112;BME280;9688;51.906;8.376;2022-10-31T14:07:49;100862.19;;;20.39;74.62
19112;BME280;9688;51.906;8.376;2022-10-31T14:10:38;100854.72;;;20.32;74.92
19112;BME280;9688;51.906;8.376;2022-10-31T14:13:31;100847.00;;;20.27;75.00
19112;BME280;9688;51.906;8.376;2022-10-31T14:16:23;100848.84;;;20.26;74.95
19112;BME280;9688;51.906;8.376;2022-10-31T14:19:15;100837.59;;;20.21;74.88
19112;BME280;9688;51.906;8.376;2022-10-31T14:22:02;100834.06;;;20.21;74.89
19112;BME280;9688;51.906;8.376;2022-10-31T14:24:48;100824.13;;;20.10;74.86
19112;BME280;9688;51.906;8.376;2022-10-31T14:27:44;100826.28;;;20.05;74.88
19112;BME280;9688;51.906;8.376;2022-10-31T14:30:30;100832.88;;;20.01;75.26
19112;BME280;9688;51.906;8.376;2022-10-31T14:33:18;100826.00;;;19.97;75.26
19112;BME280;9688;51.906;8.376;2022-10-31T14:36:10;100819.56;;;19.99;75.18
19112;BME280;9688;51.906;8.376;2022-10-31T14:39:02;100820.19;;;20.03;75.06
19112;BME280;9688;51.906;8.376;2022-10-31T14:42:05;100810.28;;;20.03;75.12
19112;BME280;9688;51.906;8.376;2022-10-31T14:45:12;100805.91;;;20.02;75.33
19112;BME280;9688;51.906;8.376;2022-10-31T14:48:13;100809.56;;;20.01;75.08
19112;BME280;9688;51.906;8.376;2022-10-31T14:51:09;100808.31;;;19.94;75.51
19112;BME280;9688;51.906;8.376;2022-10-31T14:53:57;100812.44;;;19.87;75.65
19112;BME280;9688;51.906;8.376;2022-10-31T14:56:49;100805.56;;;19.83;75.95
19112;BME280;9688;51.906;8.376;2022-10-31T14:59:37;100804.09;;;19.79;76.07
19112;BME280;9688;51.906;8.376;2022-10-31T15:02:27;100797.38;;;19.73;76.31
19112;BME280;9688;51.906;8.376;2022-10-31T15:05:15;100780.75;;;19.68;76.43
19112;BME280;9688;51.906;8.376;2022-10-31T15:08:04;100771.94;;;19.66;76.55
19112;BME280;9688;51.906;8.376;2022-10-31T15:10:50;100775.59;;;19.65;76.46
19112;BME280;9688;51.906;8.376;2022-10-31T15:13:41;100764.22;;;19.61;76.74
19112;BME280;9688;51.906;8.376;2022-10-31T15:16:32;100758.44;;;19.55;76.70